Meteo Giornale » Osservazioni meteo Stati Uniti (USA) » Smyrna

ore: 15:56 - Osservazioni Meteo Smyrna
Lat. 36° 1' N Lon. 86° 31' W Alt. 166 metri s.l.m.

poco_nuvoloso

34 °C

Poco Nuvoloso

Temp. 24 Ore

23 °C

34 °C

Nord

5.5 Km/h

Dew point 20 °C

Umidità 43 %

Visibilità  10 Km

Il sole sorge alle ore 06:17

Il sole tramonta alle ore 19:15

Data e Ora Cielo e Fenomeni T °C DP °C Um. % Pres. hPa Vis. km Vento km/h
Oggi h: 15:56 poco_nuvoloso Poco Nuvoloso 34 20 43 1019 10 N 5.5
Oggi h: 14:56 molto_nuvoloso Molto Nuvoloso 34 20 43 1019 10 N 0
Oggi h: 13:56 molto_nuvoloso Molto Nuvoloso 34 20 43 1020 10 SE 9.3
Oggi h: 12:56 nuvoloso Nuvoloso 34 21 46 1020 10 N 11.1
Oggi h: 11:56 poco_nuvoloso Poco Nuvoloso 33 21 49 1021 10 O/SO 7.4
Oggi h: 10:56 poco_nuvoloso Poco Nuvoloso 32 22 55 1021 10 O/SO 11.1
Oggi h: 09:56 sereno Sereno 31 23 62 1021 10 SO 9.3
Oggi h: 08:56 sereno Sereno 28 23 74 1021 10 S 9.3
Oggi h: 07:56 sereno Sereno 26 22 78 1021 10 N 5.5
Oggi h: 06:56 sereno Sereno 23 23 100 1021 10 N 5.5
Oggi h: 05:56 sereno Sereno 23 23 100 1020 10 N 5.5
Oggi h: 04:56 nuvoloso Nuvoloso 23 23 100 1020 10 N 0
Oggi h: 03:56 sereno Sereno 23 23 100 1019 10 N 0
Oggi h: 02:56 sereno Sereno 23 23 100 1019 10 N 0
Oggi h: 01:56 nuvoloso Nuvoloso 24 24 100 1019 10 N 0
Oggi h: 00:56 coperto Coperto 26 23 83 1019 10 N 0
Ieri h: 23:56 coperto Coperto 27 23 78 1019 10 N 5.5
Ieri h: 22:56 coperto Coperto 26 24 88 1019 10 N 0
Ieri h: 21:56 coperto_pioggia Pioggia 28 23 74 1019 10 N 0
Ieri h: 20:56 coperto Coperto 29 22 66 1019 10 N 0
Ieri h: 19:56 coperto Coperto 29 22 66 1018 10 N 5.5
Ieri h: 18:56 molto_nuvoloso Molto Nuvoloso 32 21 52 1018 10 N 5.5
Ieri h: 17:56 molto_nuvoloso Molto Nuvoloso 33 20 46 1018 10 N 5.5
Ieri h: 16:56 poco_nuvoloso Poco Nuvoloso 34 20 43 1018 10 SE 9.3